Time;durP1;ratioP1;P1;durP2;ratioP2;P2;SDS_P1;SDS_P2;PMS_P1;PMS_P2;Temp;Humidity;BMP_temperature;BMP_pressure;BME280_temperature;BME280_humidity;BME280_pressure;Samples;Min_cycle;Max_cycle;Signal;HPM_P1;HPM_P2
2021/11/26 00:01:00;;;;;;;8.88;7.53;;;;;;;1.73;100.00;98737.77;1668467;85;21001;-62
2021/11/26 00:03:36;;;;;;;10.40;8.60;;;;;;;1.71;100.00;98737.27;1675262;84;21464;-62
2021/11/26 00:06:05;;;;;;;9.98;8.45;;;;;;;1.69;100.00;98746.77;1667559;84;20904;-61
2021/11/26 00:08:34;;;;;;;10.35;8.45;;;;;;;1.67;100.00;98746.73;1677144;85;20907;-63
2021/11/26 00:11:03;;;;;;;10.05;8.00;;;;;;;1.67;100.00;98749.33;1646243;86;21263;-62
2021/11/26 00:13:44;;;;;;;11.50;9.10;;;;;;;1.69;100.00;98747.64;1676722;85;20911;-61
2021/11/26 00:16:14;;;;;;;12.43;9.48;;;;;;;1.68;100.00;98735.48;1675231;85;21470;-62
2021/11/26 00:18:44;;;;;;;11.00;9.13;;;;;;;1.65;100.00;98738.02;1673573;85;21506;-63
2021/11/26 00:21:13;;;;;;;11.97;8.93;;;;;;;1.62;100.00;98724.95;1704725;84;20979;-63
2021/11/26 00:23:46;;;;;;;14.25;8.68;;;;;;;1.58;100.00;98721.41;1703241;84;21446;-64
2021/11/26 00:26:14;;;;;;;10.65;8.98;;;;;;;1.56;100.00;98715.72;1694999;84;21450;-63
2021/11/26 00:28:43;;;;;;;11.97;8.98;;;;;;;1.53;100.00;98713.05;1667333;86;20964;-63
2021/11/26 00:31:17;;;;;;;10.20;8.23;;;;;;;1.51;100.00;98707.81;1646067;86;21479;-63
2021/11/26 00:33:53;;;;;;;11.70;8.63;;;;;;;1.47;100.00;98699.91;1653874;85;20981;-61
2021/11/26 00:36:25;;;;;;;12.75;9.15;;;;;;;1.42;100.00;98702.41;1676821;85;21126;-60
2021/11/26 00:38:54;;;;;;;9.98;8.30;;;;;;;1.39;100.00;98710.11;1676943;84;20938;-62
2021/11/26 00:41:24;;;;;;;9.85;8.08;;;;;;;1.37;100.00;98705.30;1676878;84;21017;-62
2021/11/26 00:43:59;;;;;;;12.53;9.73;;;;;;;1.38;100.00;98705.75;1669411;84;21070;-60
2021/11/26 00:46:37;;;;;;;15.38;8.73;;;;;;;1.37;100.00;98701.81;1633826;86;21483;-62
2021/11/26 00:49:11;;;;;;;10.78;8.83;;;;;;;1.34;100.00;98703.92;1643058;86;21436;-63
2021/11/26 00:51:41;;;;;;;11.95;9.20;;;;;;;1.31;100.00;98697.78;1667266;85;20915;-61
2021/11/26 00:54:15;;;;;;;11.22;8.75;;;;;;;1.29;100.00;98696.87;1662892;85;20903;-60
2021/11/26 00:56:46;;;;;;;10.70;8.28;;;;;;;1.24;100.00;98684.65;1691056;84;20923;-61
2021/11/26 00:59:23;;;;;;;12.10;8.43;;;;;;;1.19;100.00;98678.47;1691212;84;21011;-60
2021/11/26 01:01:54;;;;;;;13.32;8.40;;;;;;;1.14;100.00;98677.48;1673988;85;21430;-61
2021/11/26 01:04:28;;;;;;;12.43;8.93;;;;;;;1.10;100.00;98669.58;1674552;85;20981;-63
2021/11/26 01:07:10;;;;;;;10.88;8.88;;;;;;;1.09;100.00;98666.11;1695556;84;21596;-61
2021/11/26 01:09:37;;;;;;;14.35;8.95;;;;;;;1.08;100.00;98668.67;1690870;84;21505;-62
2021/11/26 01:12:19;;;;;;;13.22;8.80;;;;;;;1.06;100.00;98665.16;1695595;84;21443;-61
2021/11/26 01:14:48;;;;;;;12.10;9.58;;;;;;;1.04;100.00;98669.02;1692800;84;21149;-62
2021/11/26 01:17:24;;;;;;;11.73;9.03;;;;;;;1.02;100.00;98658.14;1676003;84;21444;-62
2021/11/26 01:19:57;;;;;;;11.38;8.68;;;;;;;1.03;100.00;98659.47;1671920;84;20891;-64
2021/11/26 01:22:30;;;;;;;13.25;8.95;;;;;;;1.03;100.00;98664.67;1703822;84;21483;-61
2021/11/26 01:25:02;;;;;;;10.75;8.65;;;;;;;1.04;100.00;98654.73;1705141;81;20939;-62
2021/11/26 01:27:37;;;;;;;11.63;9.23;;;;;;;1.02;100.00;98653.83;1699946;84;21446;-62
2021/11/26 01:30:20;;;;;;;11.18;8.90;;;;;;;1.00;100.00;98653.33;1678503;83;20909;-61
2021/11/26 01:32:44;;;;;;;12.28;7.95;;;;;;;0.94;100.00;98656.62;1671006;86;21479;-63
2021/11/26 01:35:20;;;;;;;9.88;8.33;;;;;;;0.93;100.00;98650.55;1672910;84;21463;-61
2021/11/26 01:37:51;;;;;;;9.88;8.10;;;;;;;0.93;100.00;98653.16;1643921;85;21495;-60
2021/11/26 01:40:24;;;;;;;11.45;8.50;;;;;;;0.96;100.00;98653.68;1671661;86;21433;-63
2021/11/26 01:42:54;;;;;;;;;;;;;;;0.97;100.00;98654.13;1674094;86;20880;-62
2021/11/26 01:45:28;;;;;;;11.53;8.80;;;;;;;0.94;100.00;98652.31;1641017;84;20409;-64
2021/11/26 01:48:02;;;;;;;14.43;8.53;;;;;;;0.92;100.00;98647.50;1642253;86;21614;-61
2021/11/26 01:50:37;;;;;;;11.63;8.83;;;;;;;0.90;100.00;98643.99;1669785;86;21056;-61
2021/11/26 01:53:11;;;;;;;9.78;8.15;;;;;;;0.84;100.00;98650.76;1699013;84;21544;-62
2021/11/26 01:55:43;;;;;;;10.78;8.30;;;;;;;0.79;100.00;98641.56;1697493;84;21435;-61
2021/11/26 01:58:22;;;;;;;9.98;7.92;;;;;;;0.79;100.00;98638.97;1701142;84;21475;-61
2021/11/26 02:00:56;;;;;;;9.80;8.23;;;;;;;0.81;100.00;98640.30;1688744;84;21491;-61
2021/11/26 02:03:41;;;;;;;11.38;8.13;;;;;;;0.79;100.00;98631.59;1691488;84;21467;-61
2021/11/26 02:06:12;;;;;;;9.40;8.10;;;;;;;0.73;100.00;98632.75;1657412;84;21492;-62
2021/11/26 02:08:45;;;;;;;11.05;8.33;;;;;;;0.70;100.00;98637.45;1659511;86;20877;-62
2021/11/26 02:11:15;;;;;;;10.60;8.18;;;;;;;0.69;100.00;98621.41;1655334;86;21424;-62
2021/11/26 02:13:44;;;;;;;15.40;8.60;;;;;;;0.71;100.00;98635.73;1651818;85;20948;-62
2021/11/26 02:16:20;;;;;;;9.78;8.53;;;;;;;0.72;100.00;98635.77;1685236;84;20941;-61
2021/11/26 02:18:55;;;;;;;12.47;7.28;;;;;;;0.73;100.00;98626.26;1659333;85;21420;-61
2021/11/26 02:21:27;;;;;;;9.18;8.03;;;;;;;0.76;100.00;98631.10;1655872;85;21427;-62
2021/11/26 02:24:01;;;;;;;10.10;7.85;;;;;;;0.74;100.00;98622.41;1667061;85;20994;-61
2021/11/26 02:26:39;;;;;;;9.43;7.97;;;;;;;0.74;100.00;98622.41;1655664;85;20980;-62
2021/11/26 02:29:15;;;;;;;10.30;8.03;;;;;;;0.73;100.00;98626.26;1684332;84;20908;-61
2021/11/26 02:31:45;;;;;;;9.88;7.53;;;;;;;0.74;100.00;98626.30;1598686;87;21494;-61
2021/11/26 02:34:17;;;;;;;9.80;7.75;;;;;;;0.77;100.00;98626.37;1662483;84;21459;-61
2021/11/26 02:36:50;;;;;;;10.28;8.43;;;;;;;0.81;100.00;98631.21;1692931;84;21439;-63
2021/11/26 02:39:28;;;;;;;8.30;7.12;;;;;;;0.86;100.00;98631.78;1673928;84;28744;-61
2021/11/26 02:42:00;;;;;;;10.50;8.05;;;;;;;0.88;100.00;98624.91;1692236;84;21470;-61
2021/11/26 02:44:30;;;;;;;9.55;6.95;;;;;;;0.92;100.00;98637.11;1696521;84;22149;-64
2021/11/26 02:46:58;;;;;;;8.83;7.10;;;;;;;0.94;100.00;98631.54;1694002;84;20903;-63
2021/11/26 02:49:32;;;;;;;8.85;7.08;;;;;;;0.97;100.00;98632.06;1698523;84;21419;-61
2021/11/26 02:52:07;;;;;;;8.68;7.20;;;;;;;0.95;100.00;98635.05;1652576;85;21597;-61
2021/11/26 02:54:42;;;;;;;9.00;7.42;;;;;;;0.96;100.00;98634.63;1690457;84;21501;-62
2021/11/26 02:57:11;;;;;;;12.37;7.72;;;;;;;0.94;100.00;98633.25;1673653;85;20972;-63
2021/11/26 02:59:44;;;;;;;11.15;7.00;;;;;;;0.94;100.00;98641.05;1689319;83;20900;-61
2021/11/26 03:02:21;;;;;;;11.63;7.75;;;;;;;0.95;100.00;98649.33;1665527;84;21012;-61
2021/11/26 03:04:52;;;;;;;9.30;7.45;;;;;;;0.98;100.00;98649.82;1660868;86;21431;-61
2021/11/26 03:07:28;;;;;;;8.15;7.35;;;;;;;1.00;100.00;98646.84;1662664;85;21517;-61
2021/11/26 03:09:58;;;;;;;10.40;7.47;;;;;;;0.98;100.00;98645.50;1661092;86;21141;-61
2021/11/26 03:12:36;;;;;;;9.18;7.58;;;;;;;0.96;100.00;98646.31;1662849;85;21424;-60
2021/11/26 03:15:05;;;;;;;12.05;7.10;;;;;;;0.92;100.00;98642.73;1660872;86;21439;-63
2021/11/26 03:17:44;;;;;;;8.63;7.17;;;;;;;0.85;100.00;98639.53;1668252;84;20972;-63
2021/11/26 03:20:19;;;;;;;8.30;7.35;;;;;;;0.82;100.00;98629.95;1663464;84;21516;-60
2021/11/26 03:22:51;;;;;;;11.15;7.85;;;;;;;0.78;100.00;98630.72;1634174;87;21273;-61
2021/11/26 03:25:26;;;;;;;8.78;7.33;;;;;;;0.72;100.00;98616.72;1628751;87;21475;-62
2021/11/26 03:27:59;;;;;;;8.48;7.45;;;;;;;0.66;100.00;98611.38;1694360;84;20900;-62
2021/11/26 03:30:32;;;;;;;9.38;7.42;;;;;;;0.60;100.00;98602.60;1660810;86;21483;-60
2021/11/26 03:33:03;;;;;;;8.88;7.30;;;;;;;0.55;100.00;98593.83;1661240;86;20980;-62
2021/11/26 03:35:33;;;;;;;8.83;7.60;;;;;;;0.54;100.00;98593.79;1614369;87;21455;-61
2021/11/26 03:38:06;;;;;;;9.13;7.47;;;;;;;0.52;100.00;98590.28;1680460;84;20956;-61
2021/11/26 03:40:38;;;;;;;11.18;7.55;;;;;;;0.48;100.00;98590.63;1648600;87;20952;-60
2021/11/26 03:43:09;;;;;;;10.63;7.67;;;;;;;0.47;100.00;98597.05;1646979;85;21452;-61
2021/11/26 03:45:40;;;;;;;9.35;7.03;;;;;;;0.46;100.00;98592.69;1666493;85;21514;-61
2021/11/26 03:48:10;;;;;;;12.07;7.25;;;;;;;0.46;100.00;98600.48;1649418;85;20881;-61
2021/11/26 03:50:44;;;;;;;8.83;7.55;;;;;;;0.44;100.00;98593.95;1661624;84;20889;-61
2021/11/26 03:53:15;;;;;;;9.43;7.58;;;;;;;0.40;100.00;98599.03;1665186;84;21506;-63
2021/11/26 03:55:48;;;;;;;8.98;7.05;;;;;;;0.35;100.00;98591.13;1671476;84;21542;-63
2021/11/26 03:58:16;;;;;;;;;;;;;;;0.32;100.00;98589.76;1650936;86;20962;-60
2021/11/26 04:00:50;;;;;;;9.03;6.75;;;;;;;0.27;100.00;98585.75;1675462;83;21083;-60
2021/11/26 04:03:20;;;;;;;10.75;7.40;;;;;;;0.23;100.00;98586.52;1674753;84;20876;-62
2021/11/26 04:05:49;;;;;;;10.03;8.00;;;;;;;0.17;100.00;98572.09;1694479;84;20973;-60
2021/11/26 04:08:20;;;;;;;10.08;7.47;;;;;;;0.15;100.00;98571.17;1692818;84;21460;-63
2021/11/26 04:10:51;;;;;;;9.20;7.17;;;;;;;0.13;100.00;98570.27;1658128;86;21431;-62
2021/11/26 04:13:21;;;;;;;10.93;7.35;;;;;;;0.13;100.00;98570.27;1661278;85;22054;-61
2021/11/26 04:16:01;;;;;;;8.70;7.47;;;;;;;0.13;100.00;98573.27;1663691;84;20893;-60
2021/11/26 04:18:33;;;;;;;8.95;6.92;;;;;;;0.13;100.00;98569.38;1668533;84;20968;-57
2021/11/26 04:21:02;;;;;;;8.05;7.17;;;;;;;0.11;100.00;98571.94;1684491;84;20880;-59
2021/11/26 04:23:32;;;;;;;9.18;6.85;;;;;;;0.10;100.00;98574.49;1692147;84;21468;-61
2021/11/26 04:26:00;;;;;;;7.08;6.37;;;;;;;0.11;100.00;98573.66;1690134;84;21059;-61
2021/11/26 04:28:33;;;;;;;7.55;6.62;;;;;;;0.11;100.00;98574.53;1678201;85;21428;-60
2021/11/26 04:31:07;;;;;;;9.38;7.17;;;;;;;0.11;100.00;98561.98;1690847;85;20956;-61
2021/11/26 04:33:38;;;;;;;8.78;6.92;;;;;;;0.07;100.00;98562.33;1678607;85;20950;-60
2021/11/26 04:36:08;;;;;;;8.03;6.72;;;;;;;0.10;100.00;98563.70;1679315;84;21486;-61
2021/11/26 04:38:37;;;;;;;7.65;6.40;;;;;;;0.14;100.00;98563.36;1664134;86;21459;-64
2021/11/26 04:41:19;;;;;;;9.75;7.03;;;;;;;0.16;100.00;98557.80;1673614;84;21458;-63
2021/11/26 04:43:47;;;;;;;9.68;7.53;;;;;;;0.16;100.00;98563.86;1693203;84;20978;-63
2021/11/26 04:46:18;;;;;;;7.87;7.00;;;;;;;0.14;100.00;98559.05;1689891;84;21438;-63
2021/11/26 04:48:50;;;;;;;8.28;6.67;;;;;;;0.12;100.00;98562.44;1678564;85;21016;-64
2021/11/26 04:51:26;;;;;;;7.92;6.53;;;;;;;0.09;100.00;98562.36;1662261;85;21543;-63
2021/11/26 04:53:52;;;;;;;8.28;6.67;;;;;;;0.05;100.00;98560.11;1651668;85;20987;-71
2021/11/26 04:56:24;;;;;;;8.50;6.47;;;;;;;0.05;100.00;98556.22;1684575;83;20975;-66
2021/11/26 04:58:53;;;;;;;9.38;6.45;;;;;;;0.06;100.00;98546.73;1656111;84;21546;-64
2021/11/26 05:01:23;;;;;;;8.68;6.15;;;;;;;0.05;100.00;98543.67;1661854;85;20965;-68
2021/11/26 05:03:52;;;;;;;8.15;6.25;;;;;;;0.06;100.00;98551.91;1662597;85;21933;-66
2021/11/26 05:06:22;;;;;;;8.43;6.55;;;;;;;0.05;100.00;98552.33;1652858;85;20956;-64
2021/11/26 05:08:52;;;;;;;8.48;6.80;;;;;;;0.03;100.00;98555.73;1640833;87;21515;-66
2021/11/26 05:11:20;;;;;;;7.83;6.45;;;;;;;0.03;100.00;98547.95;1617164;86;21029;-63
2021/11/26 05:13:49;;;;;;;7.60;6.22;;;;;;;0.05;100.00;98546.27;1648165;86;21643;-62
2021/11/26 05:16:17;;;;;;;6.75;5.75;;;;;;;0.07;100.00;98551.95;1648145;87;21451;-62
2021/11/26 05:18:45;;;;;;;7.97;6.20;;;;;;;0.10;100.00;98557.22;1648335;86;20877;-63
2021/11/26 05:21:14;;;;;;;8.80;7.12;;;;;;;0.13;100.00;98552.53;1648164;86;21500;-62
2021/11/26 05:23:42;;;;;;;8.83;6.15;;;;;;;0.12;100.00;98560.73;1604957;88;20984;-62
2021/11/26 05:26:10;;;;;;;7.33;6.25;;;;;;;0.13;100.00;98556.00;1664425;86;21508;-62
2021/11/26 05:28:38;;;;;;;6.92;5.85;;;;;;;0.13;100.00;98562.48;1664608;86;21099;-62
2021/11/26 05:31:06;;;;;;;8.33;6.28;;;;;;;0.11;100.00;98561.56;1664318;86;20916;-62
2021/11/26 05:33:35;;;;;;;8.68;6.30;;;;;;;0.13;100.00;98561.19;1633689;86;20943;-62
2021/11/26 05:36:03;;;;;;;9.15;6.03;;;;;;;0.14;100.00;98563.36;1664368;86;21521;-62
2021/11/26 05:38:31;;;;;;;8.03;6.10;;;;;;;0.14;100.00;98558.17;1664663;86;21499;-62
2021/11/26 05:41:00;;;;;;;7.60;6.37;;;;;;;0.16;100.00;98552.60;1664398;86;21113;-61
2021/11/26 05:43:27;;;;;;;6.78;5.75;;;;;;;0.16;100.00;98548.30;1664565;86;20972;-63
2021/11/26 05:45:56;;;;;;;7.37;6.25;;;;;;;0.18;100.00;98558.70;1637840;86;20971;-62
2021/11/26 05:48:25;;;;;;;7.72;6.17;;;;;;;0.18;100.00;98560.87;1664589;86;21019;-61
2021/11/26 05:50:53;;;;;;;7.10;6.40;;;;;;;0.15;100.00;98560.80;1664389;86;21038;-63
2021/11/26 05:53:22;;;;;;;6.55;5.67;;;;;;;0.15;100.00;98569.00;1664697;86;21052;-62
2021/11/26 05:55:50;;;;;;;6.70;6.00;;;;;;;0.14;100.00;98564.23;1664437;86;20916;-61
2021/11/26 05:58:18;;;;;;;7.00;6.12;;;;;;;0.15;100.00;98569.00;1664492;86;20924;-62
2021/11/26 06:00:46;;;;;;;9.00;6.37;;;;;;;0.12;100.00;98563.32;1635594;86;20888;-61
2021/11/26 06:03:14;;;;;;;6.33;5.70;;;;;;;0.12;100.00;98563.32;1661460;86;21475;-62
2021/11/26 06:05:45;;;;;;;7.78;5.80;;;;;;;0.15;100.00;98562.10;1661366;86;20940;-61
2021/11/26 06:08:13;;;;;;;6.80;6.10;;;;;;;0.19;100.00;98565.23;1661343;86;20892;-61
2021/11/26 06:10:44;;;;;;;8.08;6.65;;;;;;;0.24;100.00;98562.33;1661365;86;21491;-61
2021/11/26 06:13:12;;;;;;;7.83;5.97;;;;;;;0.31;100.00;98569.84;1661338;86;20904;-61
2021/11/26 06:15:43;;;;;;;7.60;6.22;;;;;;;0.37;100.00;98559.62;1661434;86;20952;-60
2021/11/26 06:18:13;;;;;;;8.70;6.20;;;;;;;0.42;100.00;98556.72;1661357;86;21970;-61
2021/11/26 06:20:41;;;;;;;6.62;5.80;;;;;;;0.47;100.00;98553.81;1661292;86;20897;-62
2021/11/26 06:23:09;;;;;;;6.20;5.60;;;;;;;0.49;100.00;98559.07;1661374;86;20920;-62
2021/11/26 06:25:37;;;;;;;6.72;5.90;;;;;;;0.50;100.00;98564.72;1631184;86;20968;-62
2021/11/26 06:28:05;;;;;;;8.70;6.30;;;;;;;0.51;100.00;98556.97;1661395;86;20881;-61
2021/11/26 06:30:34;;;;;;;7.22;5.62;;;;;;;0.56;100.00;98555.36;1661702;86;21435;-61
2021/11/26 06:33:04;;;;;;;7.40;6.17;;;;;;;0.61;100.00;98551.16;1661312;86;21395;-61
2021/11/26 06:35:33;;;;;;;8.70;6.47;;;;;;;0.66;100.00;98550.38;1661640;86;20924;-62
2021/11/26 06:38:01;;;;;;;7.25;5.80;;;;;;;0.72;100.00;98557.01;1634822;86;21028;-60
2021/11/26 06:40:29;;;;;;;7.10;5.87;;;;;;;0.77;100.00;98552.38;1661620;86;21080;-61
2021/11/26 06:42:59;;;;;;;6.58;5.60;;;;;;;0.82;100.00;98542.98;1661338;86;21126;-61
2021/11/26 06:45:27;;;;;;;7.17;6.10;;;;;;;0.88;100.00;98544.83;1661536;86;20912;-61
2021/11/26 06:47:54;;;;;;;6.85;6.15;;;;;;;0.94;100.00;98547.14;1661345;86;20956;-62
2021/11/26 06:50:23;;;;;;;6.80;5.67;;;;;;;0.99;100.00;98555.06;1661560;86;21446;-61
2021/11/26 06:52:51;;;;;;;7.45;5.87;;;;;;;1.03;100.00;98546.50;1661418;86;20975;-61
2021/11/26 06:55:19;;;;;;;8.18;6.20;;;;;;;1.09;100.00;98550.52;1661424;86;22036;-61
2021/11/26 06:57:47;;;;;;;7.75;6.17;;;;;;;1.14;100.00;98537.63;1661428;86;21462;-63
2021/11/26 07:00:17;;;;;;;8.23;6.37;;;;;;;1.19;100.00;98545.98;1662241;86;20876;-61
2021/11/26 07:02:47;;;;;;;6.30;5.50;;;;;;;1.29;100.00;98550.06;1664115;86;20896;-62
2021/11/26 07:05:15;;;;;;;6.67;5.97;;;;;;;1.38;100.00;98555.03;1664008;86;20995;-62
2021/11/26 07:07:43;;;;;;;6.40;5.80;;;;;;;1.49;100.00;98564.38;1664026;86;21193;-61
2021/11/26 07:10:13;;;;;;;7.05;5.22;;;;;;;1.61;100.00;98565.04;1664253;86;20920;-61
2021/11/26 07:12:42;;;;;;;6.92;5.33;;;;;;;1.72;100.00;98567.42;1640628;86;20931;-64
2021/11/26 07:15:10;;;;;;;6.30;5.33;;;;;;;1.81;100.00;98556.78;1664204;86;20924;-62
2021/11/26 07:17:38;;;;;;;6.97;5.50;;;;;;;1.93;100.00;98563.96;1664024;86;20960;-61
2021/11/26 07:20:07;;;;;;;7.05;5.67;;;;;;;2.02;100.00;98554.15;1664206;86;21102;-61
2021/11/26 07:22:35;;;;;;;5.95;4.90;;;;;;;2.12;100.00;98551.73;1663901;86;20951;-60
2021/11/26 07:25:05;;;;;;;7.10;5.45;;;;;;;2.25;100.00;98550.22;1664244;86;21621;-62
2021/11/26 07:27:35;;;;;;;6.97;5.40;;;;;;;2.34;100.00;98543.87;1663981;86;20999;-63
2021/11/26 07:30:04;;;;;;;7.33;5.67;;;;;;;2.44;100.00;98545.80;1664299;86;21448;-61
2021/11/26 07:32:34;;;;;;;7.20;5.00;;;;;;;2.53;100.00;98547.25;1663962;86;21017;-63
2021/11/26 07:35:03;;;;;;;6.08;4.83;;;;;;;2.64;100.00;98542.63;1664143;86;20920;-61
2021/11/26 07:37:32;;;;;;;5.75;4.90;;;;;;;2.72;100.00;98541.89;1663955;86;21452;-60
2021/11/26 07:40:01;;;;;;;5.78;5.10;;;;;;;2.81;100.00;98537.25;1664199;86;20955;-63
2021/11/26 07:42:29;;;;;;;7.95;4.92;;;;;;;2.90;100.00;98543.92;1663951;86;20952;-63
2021/11/26 07:44:57;;;;;;;9.20;6.03;;;;;;;2.96;100.00;98541.41;1664193;86;21791;-61
2021/11/26 07:47:26;;;;;;;6.72;5.85;;;;;;;3.05;100.00;98542.84;1663888;86;21478;-61
2021/11/26 07:49:54;;;;;;;5.58;5.05;;;;;;;3.15;100.00;98541.23;1664193;86;21518;-60
2021/11/26 07:52:21;;;;;;;5.85;5.17;;;;;;;3.24;100.00;98545.27;1663923;86;20916;-60
2021/11/26 07:54:51;;;;;;;6.50;5.30;;;;;;;3.32;100.00;98551.48;1664177;86;20888;-63
2021/11/26 07:57:19;;;;;;;7.10;5.50;;;;;;;3.39;100.00;98540.70;1663954;86;21136;-61
2021/11/26 07:59:47;;;;;;;6.60;5.47;;;;;;;3.42;100.00;98540.73;1663966;86;20955;-63
2021/11/26 08:02:15;;;;;;;5.58;4.90;;;;;;;3.47;100.00;98540.37;1661336;86;20959;-61
2021/11/26 08:04:43;;;;;;;7.60;5.58;;;;;;;3.49;100.00;98541.27;1661601;86;21475;-61
2021/11/26 08:07:11;;;;;;;5.62;4.70;;;;;;;3.56;100.00;98548.73;1661333;86;20992;-63
2021/11/26 08:09:40;;;;;;;6.15;5.10;;;;;;;3.61;100.00;98549.66;1661286;86;21118;-63
2021/11/26 08:12:08;;;;;;;7.40;5.28;;;;;;;3.66;100.00;98554.06;1661476;86;20916;-63
2021/11/26 08:14:36;;;;;;;6.17;5.55;;;;;;;3.72;100.00;98550.22;1661242;86;20908;-63
2021/11/26 08:17:05;;;;;;;7.92;5.53;;;;;;;3.82;100.00;98546.45;1661513;86;21436;-63
2021/11/26 08:19:33;;;;;;;5.83;5.00;;;;;;;3.90;100.00;98548.28;1661295;86;20963;-63
2021/11/26 08:22:01;;;;;;;7.05;4.62;;;;;;;4.01;100.00;98540.55;1661559;86;21145;-61
2021/11/26 08:24:29;;;;;;;8.33;5.05;;;;;;;4.15;100.00;98545.48;1661283;86;20940;-61
2021/11/26 08:26:57;;;;;;;5.22;4.67;;;;;;;4.26;100.00;98546.48;1661543;86;20907;-61
2021/11/26 08:29:26;;;;;;;5.72;5.03;;;;;;;4.35;100.00;98539.16;1661294;86;21411;-63
2021/11/26 08:31:54;;;;;;;8.55;5.40;;;;;;;4.47;100.00;98535.78;1661546;86;20928;-62
2021/11/26 08:34:22;;;;;;;6.78;5.30;;;;;;;4.53;100.00;98531.48;1661474;86;21094;-60
2021/11/26 08:36:51;;;;;;;7.17;5.53;;;;;;;4.63;100.00;98532.42;1661219;86;20963;-64
2021/11/26 08:39:19;;;;;;;6.97;4.90;;;;;;;4.72;100.00;98529.87;1661551;86;21008;-60
2021/11/26 08:41:49;;;;;;;5.40;4.85;;;;;;;4.83;100.00;98528.24;1661298;86;21479;-62
2021/11/26 08:44:18;;;;;;;5.78;5.03;;;;;;;4.94;100.00;98515.25;1661627;86;20940;-61
2021/11/26 08:46:46;;;;;;;10.03;5.58;;;;;;;5.06;100.00;98510.96;1661345;86;21144;-61
2021/11/26 08:49:14;;;;;;;6.87;4.97;;;;;;;5.16;100.00;98509.70;1661447;86;20940;-63
2021/11/26 08:51:44;;;;;;;6.80;5.10;;;;;;;5.26;100.00;98499.76;1661311;86;21042;-61
2021/11/26 08:54:12;;;;;;;5.45;4.42;;;;;;;5.38;100.00;98486.73;1661460;86;21008;-62
2021/11/26 08:56:42;;;;;;;5.75;4.47;;;;;;;5.48;100.00;98481.09;1661288;86;20884;-60
2021/11/26 08:59:09;;;;;;;4.37;3.98;;;;;;;5.56;100.00;98463.25;1661477;86;21909;-63
2021/11/26 09:01:37;;;;;;;7.00;5.22;;;;;;;5.65;100.00;98459.34;1662887;86;21428;-63
2021/11/26 09:04:05;;;;;;;5.62;4.97;;;;;;;5.73;100.00;98460.70;1664141;86;20912;-62
2021/11/26 09:06:34;;;;;;;8.10;5.03;;;;;;;5.75;100.00;98452.85;1663880;86;20916;-63
2021/11/26 09:09:01;;;;;;;5.95;4.95;;;;;;;5.81;100.00;98457.66;1663924;86;21471;-62
2021/11/26 09:11:31;;;;;;;6.37;5.25;;;;;;;5.88;100.00;98437.17;1664188;86;21154;-63
2021/11/26 09:14:00;;;;;;;5.53;4.60;;;;;;;5.97;100.00;98440.27;1664076;86;20908;-63
2021/11/26 09:16:28;;;;;;;4.83;4.25;;;;;;;6.03;100.00;98436.34;1663936;86;20924;-63
2021/11/26 09:18:57;;;;;;;6.75;4.85;;;;;;;6.10;100.00;98431.97;1664108;86;20947;-61
2021/11/26 09:21:25;;;;;;;4.67;4.17;;;;;;;6.14;100.00;98416.70;1664194;86;20923;-62
2021/11/26 09:23:53;;;;;;;6.30;4.62;;;;;;;6.18;100.00;98414.55;1663978;86;21823;-63
2021/11/26 09:26:21;;;;;;;4.62;4.08;;;;;;;6.22;100.00;98411.93;1642887;86;20908;-63
2021/11/26 09:28:49;;;;;;;5.10;4.60;;;;;;;6.26;100.00;98404.94;1664253;86;20967;-62
2021/11/26 09:31:17;;;;;;;5.20;4.22;;;;;;;6.29;100.00;98393.15;1664095;86;20987;-60
2021/11/26 09:33:47;;;;;;;4.70;4.30;;;;;;;6.37;100.00;98387.46;1664293;86;21019;-61
2021/11/26 09:36:15;;;;;;;4.65;4.10;;;;;;;6.48;100.00;98376.96;1664107;86;21754;-62
2021/11/26 09:38:43;;;;;;;4.62;4.10;;;;;;;6.59;100.00;98371.25;1664211;86;20892;-62
2021/11/26 09:41:13;;;;;;;5.72;3.80;;;;;;;6.71;100.00;98372.56;1664023;86;20943;-63
2021/11/26 09:43:41;;;;;;;5.33;3.92;;;;;;;6.79;100.00;98359.42;1664224;86;20956;-62
2021/11/26 09:46:11;;;;;;;4.37;3.72;;;;;;;6.86;100.00;98350.66;1664058;86;20932;-62
2021/11/26 09:48:40;;;;;;;5.42;3.52;;;;;;;6.89;100.00;98358.51;1664360;86;21139;-63
2021/11/26 09:51:08;;;;;;;5.97;4.20;;;;;;;6.90;100.00;98356.32;1663960;86;20920;-60
2021/11/26 09:53:36;;;;;;;4.28;3.80;;;;;;;6.92;100.00;98350.63;1663993;86;20899;-62
2021/11/26 09:56:06;;;;;;;4.75;3.55;;;;;;;6.94;100.00;98354.98;1642669;86;20884;-62
2021/11/26 09:58:34;;;;;;;6.37;3.70;;;;;;;6.93;100.00;98354.55;1664081;86;20872;-62
2021/11/26 10:01:06;;;;;;;4.28;3.85;;;;;;;6.95;100.00;98363.28;1663968;86;21118;-61
2021/11/26 10:03:49;;;;;;;4.62;3.83;;;;;;;7.04;100.00;98363.69;1664220;86;20920;-62
2021/11/26 10:06:38;;;;;;;6.15;4.20;;;;;;;7.11;100.00;98368.05;1664041;86;20958;-61
2021/11/26 10:09:12;;;;;;;4.92;3.45;;;;;;;7.22;100.00;98361.44;1664065;86;20908;-62
2021/11/26 10:11:56;;;;;;;5.62;3.47;;;;;;;7.33;100.00;98343.88;1664293;86;21463;-62
2021/11/26 10:14:29;;;;;;;9.28;3.83;;;;;;;7.40;100.00;98336.84;1654031;86;20936;-61
2021/11/26 10:17:07;;;;;;;4.37;3.70;;;;;;;7.48;100.00;98335.91;1664232;86;20969;-61
2021/11/26 10:19:39;;;;;;;4.37;3.98;;;;;;;7.52;100.00;98335.00;1664051;86;20959;-62
2021/11/26 10:22:18;;;;;;;4.87;4.37;;;;;;;7.55;100.00;98331.48;1664478;86;20919;-62
2021/11/26 10:25:09;;;;;;;5.67;4.92;;;;;;;7.60;100.00;98317.05;1664042;86;20939;-61
2021/11/26 10:27:58;;;;;;;4.95;3.92;;;;;;;7.62;100.00;98312.22;1664277;86;21157;-61
2021/11/26 10:30:41;;;;;;;5.87;4.95;;;;;;;7.69;100.00;98308.66;1663506;86;20951;-63
2021/11/26 10:33:25;;;;;;;6.95;4.85;;;;;;;7.72;100.00;98290.27;1664249;86;20956;-61
2021/11/26 10:35:56;;;;;;;6.15;5.08;;;;;;;7.76;100.00;98286.73;1664009;86;21609;-62
2021/11/26 10:38:28;;;;;;;6.53;4.80;;;;;;;7.78;100.00;98282.33;1664243;86;21032;-61
2021/11/26 10:41:02;;;;;;;5.50;4.22;;;;;;;7.81;100.00;98274.88;1663804;84;21126;-63
2021/11/26 11:00:00;;;;;;;8.28;3.55;;;;;;;7.99;100.00;98272.06;1663942;86;20927;-61
2021/11/26 11:02:35;;;;;;;4.75;3.55;;;;;;;7.97;100.00;98266.41;1660420;86;21023;-61
2021/11/26 11:05:06;;;;;;;6.45;4.15;;;;;;;7.97;100.00;98255.90;1661624;86;20936;-61
2021/11/26 11:07:44;;;;;;;4.53;3.92;;;;;;;8.02;100.00;98243.59;1661364;86;20940;-63
2021/11/26 11:10:34;;;;;;;6.37;3.83;;;;;;;8.13;100.00;98241.30;1661564;86;21006;-62
2021/11/26 11:13:19;;;;;;;4.15;3.42;;;;;;;8.27;100.00;98239.84;1635724;86;20896;-63
2021/11/26 11:15:49;;;;;;;3.92;3.45;;;;;;;8.43;100.00;98237.93;1661598;86;20984;-62
2021/11/26 11:18:18;;;;;;;3.70;3.20;;;;;;;8.57;100.00;98226.83;1661377;86;20951;-62
2021/11/26 11:20:47;;;;;;;6.87;3.83;;;;;;;8.67;100.00;98233.70;1661569;86;21081;-62
2021/11/26 11:23:15;;;;;;;5.97;3.22;;;;;;;8.78;100.00;98233.11;1661346;86;20976;-64
2021/11/26 11:25:44;;;;;;;4.55;3.50;;;;;;;8.88;100.00;98218.08;1635479;86;20872;-62
2021/11/26 11:28:14;;;;;;;4.78;3.00;;;;;;;8.95;100.00;98218.41;1661311;86;20920;-63
2021/11/26 11:30:42;;;;;;;4.80;3.30;;;;;;;9.05;100.00;98207.34;1661640;86;20960;-61
2021/11/26 11:33:28;;;;;;;5.10;3.12;;;;;;;9.10;100.00;98210.77;1661310;86;21957;-62
2021/11/26 11:36:03;;;;;;;5.12;3.10;;;;;;;9.13;100.00;98222.56;1661487;86;20849;-63
2021/11/26 11:39:01;;;;;;;12.15;3.77;;;;;;;9.21;100.00;98210.16;1661501;86;20955;-62
2021/11/26 11:41:29;;;;;;;3.35;2.75;;;;;;;9.31;100.00;98215.69;1661632;86;20876;-62
2021/11/26 11:43:57;;;;;;;3.62;2.92;;;;;;;9.34;100.00;98204.24;1634937;86;20964;-62
2021/11/26 11:46:43;;;;;;;4.37;2.70;;;;;;;9.38;100.00;98205.48;1661531;86;21096;-63
2021/11/26 11:49:33;;;;;;;4.30;2.77;;;;;;;9.43;100.00;98206.72;1661257;86;21369;-63
2021/11/26 11:52:19;;;;;;;4.97;2.50;;;;;;;9.45;100.00;98191.77;1661552;86;20912;-62
2021/11/26 11:54:47;;;;;;;3.72;2.67;;;;;;;9.55;100.00;98188.57;1661353;86;21476;-62
2021/11/26 11:57:38;;;;;;;6.75;2.77;;;;;;;9.65;100.00;98196.73;1661339;86;21030;-62
2021/11/26 12:00:17;;;;;;;4.42;3.33;;;;;;;9.71;100.00;98185.63;1661307;86;22267;-63
2021/11/26 12:03:09;;;;;;;4.10;2.10;;;;;;;9.76;100.00;98181.59;1663314;86;20888;-63
2021/11/26 12:05:39;;;;;;;4.08;2.58;;;;;;;9.79;100.00;98186.36;1657891;86;20924;-62
2021/11/26 12:08:13;;;;;;;2.83;2.33;;;;;;;9.81;100.00;98174.48;1663971;86;20952;-62